Avon, MN

6:32 AM CDT on July 06, 2015 (GMT -0500)
Saint Johns University Campus | | Change Station
CLOSE
Current Station
Personal Weather Station
Location: Collegeville, MN
Elevation: 1200 ft
Nearby Weather Stations

Elev 1200 ft 45.58 °N, 94.39 °W | Updated 19 seconds ago

Overcast
Overcast
67.4 °F
Feels Like 67.4 °F
N
5.3
Wind Variable Wind from WNW
Gusts 9.0 mph

Today
High -- | Low -- °F
--% Chance of Precip.
Yesterday
High -- | Low -- °F
Precip. -- in
5:35 AM 9:09 PM
Waning Gibbous, 76% visible
Pressure 29.82 in
Visibility 1.5 miles
Clouds Overcast 700 ft
Dew Point 66 °F
Humidity 97%
Rainfall 0.11 in
Snow Depth Not available.
UV 0.0 out of 12
Pollen .60 out of 12
Air Quality Not available.
Flu Activity Not available.
SPECI KSTC 061127Z AUTO 01004KT 1 1/2SM -RA BR OVC007 21/20 A2982 RMK AO2 CIG 004V011 P0001 T02060200 $

More Conditions Fewer Conditions

Pressure 29.82 in
Visibility 1.5 miles
Clouds Overcast 700 ft
Dew Point 66 °F
Humidity 97%
Rainfall 0.11 in
Snow Depth Not available.
UV 0.0 out of 12
Pollen .60 out of 12
Air Quality Not available.
Flu Activity Not available.
SPECI KSTC 061127Z AUTO 01004KT 1 1/2SM -RA BR OVC007 21/20 A2982 RMK AO2 CIG 004V011 P0001 T02060200 $

More Conditions Fewer Conditions

10-Day Weather Forecast

×

Almanac

Astronomy

Jul. 06, 2015 Rise Set
Actual Time
Civil Twilight
Nautical Twilight
Astronomical Twilight
Moon
Length of Visible Light
Length of Day
Tomorrow will be .
, % of the Moon is Illuminated

Today's Extremes

State Highs State Lows

Community

WunderPhotos

Upload Photos

1,835,538 photos uploaded!

WunderBlogs® & News

Nearby

Air Quality

  Air Quality AQ Index Pollutant
Not available.

Snow Depth

Station Depth Elevation

Earthquake Activity

City Distance Mag. Time & Date
Minimum magnitude displayed is 2.5.

Coastal Water Temperatures

Place Temperature

Stations

Nearby Weather Stations

Station Location Temp. Windchill Dew Point Humidity Wind Precip. Elev Updated Type